createdAt,value
2018-08-25T00:01:26.541Z,69.91
2018-08-25T00:03:55.130Z,70.40
2018-08-25T00:06:23.611Z,69.70
2018-08-25T00:08:52.266Z,71.58
2018-08-25T00:11:20.754Z,71.75
2018-08-25T00:13:49.478Z,71.75
2018-08-25T00:16:18.108Z,68.47
2018-08-25T00:18:46.602Z,71.31
2018-08-25T00:21:15.131Z,69.97
2018-08-25T00:23:43.760Z,69.46
2018-08-25T00:26:12.470Z,71.33
2018-08-25T00:28:40.952Z,71.81
2018-08-25T00:31:14.892Z,71.43
2018-08-25T00:33:43.543Z,72.29
2018-08-25T00:36:12.447Z,72.26
2018-08-25T00:41:08.399Z,71.38
2018-08-25T00:43:36.946Z,71.74
2018-08-25T00:46:05.541Z,72.45
2018-08-25T00:48:34.166Z,72.73
2018-08-25T00:51:03.006Z,73.25
2018-08-25T00:53:31.756Z,73.54
2018-08-25T00:56:00.266Z,73.62
2018-08-25T00:58:28.922Z,74.00
2018-08-25T01:00:57.460Z,74.41
2018-08-25T01:03:26.543Z,74.43
2018-08-25T01:05:55.056Z,75.27
2018-08-25T01:08:24.021Z,75.11
2018-08-25T01:10:52.506Z,75.02
2018-08-25T01:13:21.186Z,74.55
2018-08-25T01:15:49.735Z,73.78
2018-08-25T01:18:18.278Z,74.65
2018-08-25T01:20:48.669Z,74.61
2018-08-25T01:23:17.243Z,74.00
2018-08-25T01:25:45.906Z,75.11
2018-08-25T01:28:14.480Z,75.38
2018-08-25T01:30:43.001Z,75.11
2018-08-25T01:33:11.801Z,75.67
2018-08-25T01:35:40.296Z,75.42
2018-08-25T01:38:09.021Z,74.11
2018-08-25T01:40:37.665Z,73.46
2018-08-25T01:43:06.220Z,74.10
2018-08-25T01:45:34.808Z,73.44
2018-08-25T01:48:03.314Z,76.03
2018-08-25T01:50:31.771Z,76.08
2018-08-25T01:53:00.293Z,76.86
2018-08-25T01:55:28.855Z,76.66
2018-08-25T01:57:57.388Z,76.39
2018-08-25T02:00:25.879Z,75.24
2018-08-25T02:02:54.692Z,75.58
2018-08-25T02:05:24.378Z,74.78
2018-08-25T02:07:52.871Z,75.38
2018-08-25T02:10:21.446Z,76.10
2018-08-25T02:12:50.216Z,76.33
2018-08-25T02:15:18.860Z,77.12
2018-08-25T02:17:47.422Z,77.04
2018-08-25T02:20:16.244Z,76.86
2018-08-25T02:22:46.186Z,76.96
2018-08-25T02:25:14.896Z,77.32
2018-08-25T02:27:43.380Z,77.22
2018-08-25T02:30:11.956Z,77.27
2018-08-25T02:32:40.564Z,76.75
2018-08-25T02:35:09.282Z,76.60
2018-08-25T02:37:37.840Z,76.46
2018-08-25T02:40:06.698Z,76.63
2018-08-25T02:42:35.816Z,76.90
2018-08-25T02:45:04.875Z,77.91
2018-08-25T02:47:34.149Z,78.65
2018-08-25T02:50:02.843Z,78.68
2018-08-25T02:52:31.686Z,78.18
2018-08-25T02:55:00.205Z,82.10
2018-08-25T02:57:28.747Z,82.85
2018-08-25T02:59:57.261Z,81.12
2018-08-25T03:02:25.734Z,81.27
2018-08-25T03:04:54.321Z,80.41
2018-08-25T03:07:28.971Z,81.12
2018-08-25T03:09:57.572Z,81.19
2018-08-25T03:12:26.207Z,82.68
2018-08-25T03:14:54.944Z,82.35
2018-08-25T03:17:23.766Z,84.98
2018-08-25T03:19:52.827Z,85.96
2018-08-25T03:22:21.381Z,84.58
2018-08-25T03:24:50.058Z,86.26
2018-08-25T03:27:19.190Z,86.21
2018-08-25T03:29:47.985Z,86.81
2018-08-25T03:32:16.529Z,86.72
2018-08-25T03:34:45.013Z,86.60
2018-08-25T03:37:13.690Z,87.31
2018-08-25T03:39:42.189Z,87.63
2018-08-25T03:42:10.673Z,86.56
2018-08-25T03:44:39.424Z,88.18
2018-08-25T03:47:07.886Z,88.11
2018-08-25T03:49:37.314Z,87.60
2018-08-25T03:52:06.018Z,87.59
2018-08-25T03:54:34.492Z,86.52
2018-08-25T03:57:03.269Z,87.84
2018-08-25T03:59:31.761Z,88.21
2018-08-25T04:02:00.301Z,88.17
2018-08-25T04:04:28.916Z,88.47
2018-08-25T04:06:57.423Z,88.41
2018-08-25T04:09:26.237Z,88.57
2018-08-25T04:11:54.813Z,88.52
2018-08-25T04:14:23.303Z,88.39
2018-08-25T04:16:52.107Z,88.55
2018-08-25T04:19:21.931Z,89.10
2018-08-25T04:21:51.424Z,88.14
2018-08-25T04:24:19.997Z,88.72
2018-08-25T04:26:48.539Z,88.19
2018-08-25T04:29:17.090Z,88.37
2018-08-25T04:31:45.610Z,89.22
2018-08-25T04:34:14.222Z,89.66
2018-08-25T04:36:42.842Z,89.48
2018-08-25T04:39:12.495Z,88.73
2018-08-25T04:41:41.042Z,89.50
2018-08-25T04:44:10.069Z,89.42
2018-08-25T04:46:39.146Z,89.22
2018-08-25T04:49:08.001Z,88.43
2018-08-25T04:51:36.554Z,87.53
2018-08-25T04:54:05.170Z,88.14
2018-08-25T04:56:35.022Z,88.02
2018-08-25T04:59:03.543Z,87.18
2018-08-25T05:01:32.416Z,88.71
2018-08-25T05:04:01.223Z,88.11
2018-08-25T05:06:30.063Z,88.61
2018-08-25T05:08:59.722Z,89.27
2018-08-25T05:11:28.323Z,87.96
2018-08-25T05:13:56.844Z,87.68
2018-08-25T05:16:25.436Z,87.61
2018-08-25T05:18:53.969Z,88.33
2018-08-25T05:21:22.619Z,87.93
2018-08-25T05:23:51.157Z,88.42
2018-08-25T05:26:20.109Z,88.12
2018-08-25T05:28:48.592Z,87.88
2018-08-25T05:31:17.584Z,88.33
2018-08-25T05:33:46.118Z,87.61
2018-08-25T05:36:14.742Z,86.88
2018-08-25T05:38:43.289Z,86.59
2018-08-25T05:41:11.808Z,86.32
2018-08-25T05:43:40.401Z,86.33
2018-08-25T05:46:09.185Z,85.03
2018-08-25T05:48:37.998Z,85.75
2018-08-25T05:51:07.076Z,85.88
2018-08-25T05:53:35.581Z,85.54
2018-08-25T05:56:04.113Z,84.95
2018-08-25T05:58:32.984Z,85.50
2018-08-25T06:01:01.625Z,86.00
2018-08-25T06:03:30.364Z,86.63
2018-08-25T06:05:58.895Z,85.39
2018-08-25T06:08:27.396Z,85.64
2018-08-25T06:10:55.964Z,85.36
2018-08-25T06:13:24.502Z,84.62
2018-08-25T06:15:52.971Z,85.97
2018-08-25T06:18:21.504Z,85.51
2018-08-25T06:20:50.159Z,85.08
2018-08-25T06:23:18.756Z,85.30
2018-08-25T06:25:47.432Z,85.88
2018-08-25T06:28:15.964Z,86.05
2018-08-25T06:30:44.857Z,86.82
2018-08-25T06:33:13.368Z,86.86
2018-08-25T06:35:41.936Z,86.79
2018-08-25T06:38:10.426Z,87.32
2018-08-25T06:40:39.841Z,88.32
2018-08-25T06:43:08.421Z,87.60
2018-08-25T06:45:37.038Z,87.19
2018-08-25T06:48:05.703Z,87.79
2018-08-25T06:50:34.342Z,87.87
2018-08-25T06:53:02.878Z,88.02
2018-08-25T06:55:31.710Z,88.10
2018-08-25T06:58:00.213Z,88.66
2018-08-25T07:00:28.901Z,88.76
2018-08-25T07:02:57.432Z,88.32
2018-08-25T07:05:25.961Z,88.64
2018-08-25T07:07:54.450Z,88.12
2018-08-25T07:10:23.401Z,87.18
2018-08-25T07:12:51.908Z,87.14
2018-08-25T07:15:20.404Z,86.57
2018-08-25T07:17:48.892Z,87.33
2018-08-25T07:20:17.445Z,87.59
2018-08-25T07:22:45.971Z,86.91
2018-08-25T07:25:14.446Z,86.52
2018-08-25T07:27:44.990Z,87.16
2018-08-25T07:30:13.483Z,86.29
2018-08-25T07:32:41.958Z,86.18
2018-08-25T07:35:10.514Z,87.35
2018-08-25T07:37:39.109Z,87.06
2018-08-25T07:40:07.790Z,87.22
2018-08-25T07:42:36.433Z,88.63
2018-08-25T07:45:05.034Z,88.02
2018-08-25T07:47:33.554Z,88.63
2018-08-25T07:50:02.123Z,88.77
2018-08-25T07:52:30.605Z,86.67
2018-08-25T07:54:59.207Z,87.17
2018-08-25T07:57:27.981Z,88.06
2018-08-25T07:59:56.558Z,87.20
2018-08-25T08:02:25.245Z,86.35
2018-08-25T08:04:54.456Z,86.16
2018-08-25T08:07:23.051Z,86.26
2018-08-25T08:09:51.718Z,85.54
2018-08-25T08:12:20.306Z,85.43
2018-08-25T08:14:48.994Z,84.29
2018-08-25T08:17:17.599Z,84.22
2018-08-25T08:19:46.078Z,83.01
2018-08-25T08:22:14.608Z,85.17
2018-08-25T08:24:43.172Z,84.88
2018-08-25T08:27:11.809Z,85.14
2018-08-25T08:29:40.470Z,83.23
2018-08-25T08:32:09.165Z,84.43
2018-08-25T08:34:38.071Z,82.41
2018-08-25T08:37:07.376Z,83.22
2018-08-25T08:39:37.642Z,81.92
2018-08-25T08:42:06.151Z,80.49
2018-08-25T08:44:34.744Z,80.60
2018-08-25T08:47:03.530Z,82.08
2018-08-25T08:49:32.109Z,81.04
2018-08-25T08:52:00.694Z,83.00
2018-08-25T08:54:29.234Z,81.26
2018-08-25T08:56:58.063Z,80.68
2018-08-25T08:59:26.670Z,78.58
2018-08-25T09:01:55.169Z,78.71
2018-08-25T09:04:23.771Z,79.99
2018-08-25T09:06:52.438Z,76.75
2018-08-25T09:09:20.983Z,77.83
2018-08-25T09:11:49.551Z,77.48
2018-08-25T09:14:18.128Z,76.67
2018-08-25T09:16:46.697Z,78.40
2018-08-25T09:19:15.228Z,76.80
2018-08-25T09:21:43.907Z,76.08
2018-08-25T09:24:12.462Z,76.71
2018-08-25T09:26:41.048Z,77.43
2018-08-25T09:29:09.542Z,75.17
2018-08-25T09:31:38.085Z,76.58
2018-08-25T09:34:06.674Z,78.65
2018-08-25T09:36:35.497Z,76.98
2018-08-25T09:39:04.447Z,79.89
2018-08-25T09:41:33.301Z,77.02
2018-08-25T09:44:01.820Z,76.65
2018-08-25T09:46:30.781Z,75.29
2018-08-25T09:48:59.279Z,73.41
2018-08-25T09:51:28.013Z,73.49
2018-08-25T09:53:56.687Z,69.61
2018-08-25T09:56:25.179Z,71.04
2018-08-25T09:58:53.964Z,69.06
2018-08-25T10:01:27.959Z,70.08
2018-08-25T10:03:56.557Z,69.96
2018-08-25T10:06:25.306Z,68.33
2018-08-25T10:08:54.274Z,69.90
2018-08-25T10:11:23.337Z,67.61
2018-08-25T10:13:51.892Z,66.47
2018-08-25T10:16:20.561Z,67.13
2018-08-25T10:18:49.153Z,65.98
2018-08-25T10:21:17.684Z,66.51
2018-08-25T10:23:46.254Z,64.99
2018-08-25T10:26:14.850Z,64.69
2018-08-25T10:28:43.463Z,66.04
2018-08-25T10:31:11.962Z,64.93
2018-08-25T10:33:40.584Z,64.91
2018-08-25T10:36:09.077Z,64.92
2018-08-25T10:38:37.694Z,64.47
2018-08-25T10:41:06.582Z,64.69
2018-08-25T10:43:35.169Z,63.41
2018-08-25T10:46:03.696Z,64.20
2018-08-25T10:48:32.238Z,61.46
2018-08-25T10:51:01.513Z,60.71
2018-08-25T10:53:30.024Z,61.53
2018-08-25T10:55:58.887Z,61.64
2018-08-25T10:58:27.364Z,59.62
2018-08-25T11:00:56.006Z,58.29
2018-08-25T11:03:24.425Z,58.76
2018-08-25T11:05:52.929Z,58.50
2018-08-25T11:08:21.406Z,58.37
2018-08-25T11:10:49.953Z,59.07
2018-08-25T11:13:18.495Z,56.13
2018-08-25T11:15:47.026Z,58.84
2018-08-25T11:18:15.501Z,64.71
2018-08-25T11:20:44.082Z,68.91
2018-08-25T11:23:12.718Z,70.91
2018-08-25T11:25:41.349Z,71.95
2018-08-25T11:28:10.018Z,69.40
2018-08-25T11:30:38.617Z,70.60
2018-08-25T11:33:07.198Z,66.82
2018-08-25T11:35:35.802Z,65.39
2018-08-25T11:38:04.421Z,63.29
2018-08-25T11:40:32.951Z,66.26
2018-08-25T11:43:02.670Z,68.83
2018-08-25T11:45:31.458Z,66.86
2018-08-25T11:48:00.059Z,66.42
2018-08-25T11:50:28.758Z,67.99
2018-08-25T11:52:57.406Z,64.40
2018-08-25T11:55:25.978Z,63.29
2018-08-25T11:57:54.603Z,62.30
2018-08-25T12:00:23.185Z,64.57
2018-08-25T12:02:51.847Z,64.59
2018-08-25T12:05:20.356Z,64.58
2018-08-25T12:07:48.897Z,67.00
2018-08-25T12:10:18.005Z,64.23
2018-08-25T12:12:46.515Z,64.42
2018-08-25T12:15:15.155Z,64.56
2018-08-25T12:17:43.944Z,61.43
2018-08-25T12:20:12.572Z,61.87
2018-08-25T12:22:41.106Z,60.15
2018-08-25T12:25:09.977Z,60.27
2018-08-25T12:27:38.457Z,59.77
2018-08-25T12:30:07.532Z,61.98
2018-08-25T12:32:36.042Z,64.82
2018-08-25T12:35:04.725Z,65.17
2018-08-25T12:37:33.270Z,69.74
2018-08-25T12:40:01.872Z,73.72
2018-08-25T12:42:30.349Z,74.54
2018-08-25T12:44:58.940Z,76.94
2018-08-25T12:47:28.060Z,76.18
2018-08-25T12:49:57.894Z,72.19
2018-08-25T12:52:26.465Z,70.84
2018-08-25T12:54:54.995Z,72.64
2018-08-25T12:57:23.719Z,70.52
2018-08-25T12:59:52.242Z,68.38
2018-08-25T13:02:21.040Z,65.88
2018-08-25T13:04:49.567Z,66.29
2018-08-25T13:07:18.054Z,63.12
2018-08-25T13:09:46.797Z,59.57
2018-08-25T13:12:15.286Z,56.87
2018-08-25T13:14:44.370Z,59.29
2018-08-25T13:17:12.921Z,56.90
2018-08-25T13:19:41.489Z,52.62
2018-08-25T13:22:10.182Z,56.61
2018-08-25T13:24:38.717Z,56.03
2018-08-25T13:27:07.314Z,49.39
2018-08-25T13:29:35.825Z,48.21
2018-08-25T13:32:06.986Z,50.75
2018-08-25T13:34:35.472Z,51.40
2018-08-25T13:37:04.076Z,56.81
2018-08-25T13:39:33.666Z,61.91
2018-08-25T13:42:02.157Z,59.08
2018-08-25T13:44:30.790Z,64.64
2018-08-25T13:46:59.344Z,72.44
2018-08-25T13:49:28.671Z,79.23
2018-08-25T13:51:57.179Z,82.38
2018-08-25T13:54:25.817Z,84.16
2018-08-25T13:56:54.313Z,84.91
2018-08-25T13:59:22.842Z,83.07
2018-08-25T14:01:51.439Z,84.36
2018-08-25T14:04:20.131Z,84.11
2018-08-25T14:06:48.673Z,84.44
2018-08-25T14:09:17.273Z,83.91
2018-08-25T14:11:45.748Z,83.29
2018-08-25T14:14:14.412Z,80.49
2018-08-25T14:16:42.943Z,82.91
2018-08-25T14:19:11.528Z,81.80
2018-08-25T14:21:40.097Z,78.75
2018-08-25T14:24:08.624Z,77.11
2018-08-25T14:26:37.224Z,74.75
2018-08-25T14:29:05.974Z,73.91
2018-08-25T14:31:34.467Z,74.02
2018-08-25T14:34:03.515Z,75.43
2018-08-25T14:36:32.075Z,74.67
2018-08-25T14:39:00.681Z,79.37
2018-08-25T14:41:29.289Z,81.44
2018-08-25T14:43:58.328Z,81.82
2018-08-25T14:46:26.848Z,83.96
2018-08-25T14:48:55.332Z,84.73
2018-08-25T14:51:23.843Z,85.87
2018-08-25T14:53:52.374Z,85.19
2018-08-25T14:56:20.917Z,84.90
2018-08-25T14:58:49.435Z,85.41
2018-08-25T15:01:18.046Z,86.07
2018-08-25T15:03:46.617Z,86.25
2018-08-25T15:06:15.190Z,86.20
2018-08-25T15:08:43.778Z,84.90
2018-08-25T15:11:12.293Z,85.29
2018-08-25T15:13:40.947Z,84.03
2018-08-25T15:16:09.552Z,85.15
2018-08-25T15:18:38.088Z,82.11
2018-08-25T15:21:06.819Z,84.25
2018-08-25T15:23:35.508Z,84.59
2018-08-25T15:26:05.009Z,83.68
2018-08-25T15:28:33.798Z,85.07
2018-08-25T15:31:02.714Z,84.91
2018-08-25T15:33:31.437Z,78.11
2018-08-25T15:35:59.932Z,71.15
2018-08-25T15:38:28.535Z,67.04
2018-08-25T15:40:57.001Z,62.55
2018-08-25T15:43:25.545Z,61.08
2018-08-25T15:45:54.176Z,61.16
2018-08-25T15:48:22.825Z,60.93
2018-08-25T15:50:51.373Z,63.17
2018-08-25T15:53:19.898Z,55.74
2018-08-25T15:55:48.517Z,58.01
2018-08-25T15:58:17.067Z,61.59
2018-08-25T16:00:45.628Z,64.73
2018-08-25T16:03:14.150Z,64.03
2018-08-25T16:05:42.875Z,66.28
2018-08-25T16:08:11.671Z,68.35
2018-08-25T16:10:40.224Z,73.95
2018-08-25T16:13:08.808Z,75.46
2018-08-25T16:15:37.847Z,79.91
2018-08-25T16:18:06.476Z,76.76
2018-08-25T16:20:35.156Z,79.01
2018-08-25T16:23:03.910Z,81.96
2018-08-25T16:25:32.868Z,82.67
2018-08-25T16:28:01.341Z,82.46
2018-08-25T16:30:29.861Z,81.25
2018-08-25T16:32:58.361Z,80.82
2018-08-25T16:35:26.874Z,82.51
2018-08-25T16:37:55.447Z,82.34
2018-08-25T16:40:24.373Z,79.53
2018-08-25T16:42:52.911Z,72.35
2018-08-25T16:45:21.409Z,73.48
2018-08-25T16:47:49.925Z,70.04
2018-08-25T16:50:18.410Z,70.98
2018-08-25T16:52:47.141Z,65.29
2018-08-25T16:55:15.742Z,66.26
2018-08-25T16:57:44.256Z,61.21
2018-08-25T17:00:12.861Z,61.25
2018-08-25T17:02:41.372Z,61.70
2018-08-25T17:05:09.965Z,56.52
2018-08-25T17:07:38.585Z,56.78
2018-08-25T17:10:07.252Z,52.87
2018-08-25T17:12:35.909Z,55.30
2018-08-25T17:15:05.143Z,58.11
2018-08-25T17:17:33.771Z,64.82
2018-08-25T17:20:02.523Z,60.14
2018-08-25T17:22:31.439Z,61.33
2018-08-25T17:24:59.981Z,63.09
2018-08-25T17:27:28.662Z,62.75
2018-08-25T17:29:57.703Z,56.26
2018-08-25T17:32:27.297Z,56.04
2018-08-25T17:34:55.855Z,56.65
2018-08-25T17:37:24.593Z,60.07
2018-08-25T17:39:53.247Z,64.09
2018-08-25T17:42:22.070Z,65.63
2018-08-25T17:44:50.610Z,68.16
2018-08-25T17:47:19.211Z,70.14
2018-08-25T17:49:47.761Z,70.29
2018-08-25T17:52:16.422Z,71.52
2018-08-25T17:54:44.932Z,72.96
2018-08-25T17:57:13.771Z,74.54
2018-08-25T17:59:42.302Z,76.09
2018-08-25T18:02:10.827Z,79.85
2018-08-25T18:04:39.369Z,81.03
2018-08-25T18:07:07.944Z,81.93
2018-08-25T18:09:36.774Z,84.38
2018-08-25T18:12:05.396Z,84.54
2018-08-25T18:14:34.006Z,84.35
2018-08-25T18:17:02.751Z,84.56
2018-08-25T18:19:31.365Z,85.23
2018-08-25T18:21:59.960Z,85.29
2018-08-25T18:24:28.475Z,85.89
2018-08-25T18:26:57.412Z,86.27
2018-08-25T18:29:26.417Z,87.04
2018-08-25T18:31:55.014Z,87.30
2018-08-25T18:34:23.581Z,87.46
2018-08-25T18:36:52.499Z,87.03
2018-08-25T18:39:20.984Z,86.37
2018-08-25T18:41:49.483Z,85.23
2018-08-25T18:44:17.989Z,84.31
2018-08-25T18:46:46.535Z,84.46
2018-08-25T18:49:15.101Z,84.30
2018-08-25T18:51:43.618Z,84.41
2018-08-25T18:54:12.140Z,84.36
2018-08-25T18:56:40.628Z,85.36
2018-08-25T18:59:09.276Z,84.61
2018-08-25T19:01:37.864Z,86.17
2018-08-25T19:04:06.783Z,86.10
2018-08-25T19:06:35.333Z,87.26
2018-08-25T19:09:05.153Z,85.82
2018-08-25T19:11:34.062Z,86.00
2018-08-25T19:14:02.637Z,86.45
2018-08-25T19:16:31.170Z,85.73
2018-08-25T19:18:59.767Z,85.33
2018-08-25T19:21:28.276Z,85.55
2018-08-25T19:23:56.797Z,87.11
2018-08-25T19:26:25.287Z,86.83
2018-08-25T19:28:53.888Z,86.15
2018-08-25T19:31:22.478Z,86.63
2018-08-25T19:33:51.252Z,86.45
2018-08-25T19:36:20.091Z,86.41
2018-08-25T19:38:48.689Z,86.97
2018-08-25T19:41:18.159Z,85.67
2018-08-25T19:43:46.774Z,86.29
2018-08-25T19:46:15.355Z,86.48
2018-08-25T19:48:43.948Z,86.85
2018-08-25T19:51:12.894Z,87.42
2018-08-25T19:53:41.461Z,87.01
2018-08-25T19:56:10.171Z,87.18
2018-08-25T19:58:38.917Z,87.04
2018-08-25T20:01:07.562Z,86.53
2018-08-25T20:03:36.051Z,87.85
2018-08-25T20:06:04.644Z,87.83
2018-08-25T20:08:33.119Z,88.30
2018-08-25T20:11:01.782Z,88.27
2018-08-25T20:13:30.487Z,87.86
2018-08-25T20:15:59.012Z,87.32
2018-08-25T20:18:27.629Z,87.80
2018-08-25T20:20:56.433Z,87.83
2018-08-25T20:23:24.884Z,88.73
2018-08-25T20:25:53.426Z,88.56
2018-08-25T20:28:21.916Z,88.65
2018-08-25T20:30:50.780Z,89.30
2018-08-25T20:33:19.248Z,89.40
2018-08-25T20:35:48.017Z,89.39
2018-08-25T20:38:16.453Z,89.18
2018-08-25T20:40:45.026Z,90.10
2018-08-25T20:43:13.571Z,89.95
2018-08-25T20:45:42.167Z,89.94
2018-08-25T20:48:10.767Z,89.62
2018-08-25T20:50:39.652Z,89.59
2018-08-25T20:53:08.484Z,89.93
2018-08-25T20:55:37.160Z,90.13
2018-08-25T20:58:06.265Z,90.41
2018-08-25T21:00:34.890Z,90.42
2018-08-25T21:03:03.466Z,89.98
2018-08-25T21:05:31.964Z,90.77
2018-08-25T21:08:00.509Z,90.38
2018-08-25T21:10:29.068Z,89.82
2018-08-25T21:12:57.617Z,90.08
2018-08-25T21:15:26.185Z,89.71
2018-08-25T21:17:55.353Z,89.90
2018-08-25T21:20:23.874Z,90.04
2018-08-25T21:22:52.404Z,89.61
2018-08-25T21:25:21.258Z,90.68
2018-08-25T21:27:49.769Z,89.28
2018-08-25T21:30:18.516Z,89.71
2018-08-25T21:32:47.193Z,89.59
2018-08-25T21:35:15.705Z,89.31
2018-08-25T21:37:44.436Z,89.89
2018-08-25T21:40:12.952Z,89.61
2018-08-25T21:42:41.677Z,90.12
2018-08-25T21:45:10.313Z,89.64
2018-08-25T21:47:38.906Z,90.33
2018-08-25T21:50:07.970Z,89.47
2018-08-25T21:52:36.511Z,90.43
2018-08-25T21:55:05.053Z,91.00
2018-08-25T21:57:33.664Z,91.10
2018-08-25T22:00:02.352Z,91.21
2018-08-25T22:02:31.150Z,90.92
2018-08-25T22:04:59.678Z,91.06
2018-08-25T22:07:28.305Z,90.89
2018-08-25T22:09:56.897Z,90.50
2018-08-25T22:12:25.396Z,91.21
2018-08-25T22:14:54.110Z,91.26
2018-08-25T22:17:22.690Z,91.16
2018-08-25T22:19:51.163Z,90.46
2018-08-25T22:22:19.696Z,91.08
2018-08-25T22:24:48.380Z,90.97
2018-08-25T22:27:17.456Z,90.86
2018-08-25T22:29:46.073Z,90.95
2018-08-25T22:32:15.832Z,90.70
2018-08-25T22:34:44.295Z,90.58
2018-08-25T22:37:13.192Z,89.90
2018-08-25T22:39:41.714Z,90.46
2018-08-25T22:42:10.203Z,89.96
2018-08-25T22:44:38.734Z,90.29
2018-08-25T22:47:07.278Z,90.27
2018-08-25T22:49:35.817Z,90.13
2018-08-25T22:52:04.473Z,89.36
2018-08-25T22:54:32.977Z,89.84
2018-08-25T22:57:01.555Z,89.86
2018-08-25T22:59:30.465Z,90.25
2018-08-25T23:01:59.040Z,90.18
2018-08-25T23:04:27.923Z,91.09
2018-08-25T23:06:56.447Z,90.84
2018-08-25T23:09:25.523Z,90.96
2018-08-25T23:11:54.125Z,90.61
2018-08-25T23:14:22.945Z,90.27
2018-08-25T23:16:51.419Z,90.21
2018-08-25T23:19:19.941Z,90.40
2018-08-25T23:21:48.575Z,90.89
2018-08-25T23:24:17.103Z,90.80
2018-08-25T23:26:45.590Z,90.80
2018-08-25T23:29:14.092Z,90.19
2018-08-25T23:31:42.738Z,89.87
2018-08-25T23:34:11.227Z,90.01
2018-08-25T23:36:39.832Z,90.18
2018-08-25T23:39:09.460Z,90.66
2018-08-25T23:41:38.040Z,90.83
2018-08-25T23:44:06.709Z,91.23
2018-08-25T23:46:35.305Z,91.35
2018-08-25T23:49:04.090Z,91.53
2018-08-25T23:51:32.678Z,91.49
2018-08-25T23:54:01.232Z,91.42
2018-08-25T23:56:29.746Z,91.81
2018-08-25T23:58:58.307Z,91.48
